createdAt,value
2018-08-13T00:00:04.919Z,974.6
2018-08-13T00:01:06.196Z,974.6
2018-08-13T00:02:09.063Z,974.5
2018-08-13T00:03:10.287Z,974.5
2018-08-13T00:04:11.514Z,974.5
2018-08-13T00:05:12.724Z,974.5
2018-08-13T00:06:15.726Z,974.5
2018-08-13T00:07:17.032Z,974.5
2018-08-13T00:08:18.259Z,974.5
2018-08-13T00:09:19.467Z,974.5
2018-08-13T00:10:20.655Z,974.4
2018-08-13T00:11:21.846Z,974.5
2018-08-13T00:12:23.260Z,974.5
2018-08-13T00:13:24.453Z,974.4
2018-08-13T00:14:25.669Z,974.4
2018-08-13T00:15:26.897Z,974.4
2018-08-13T00:16:28.240Z,974.4
2018-08-13T00:17:29.525Z,974.4
2018-08-13T00:18:30.681Z,974.3
2018-08-13T00:19:31.908Z,974.4
2018-08-13T00:20:33.136Z,974.4
2018-08-13T00:21:34.330Z,974.3
2018-08-13T00:22:36.095Z,974.4
2018-08-13T00:23:37.359Z,974.4
2018-08-13T00:24:38.570Z,974.4
2018-08-13T00:25:39.794Z,974.3
2018-08-13T00:26:41.004Z,974.3
2018-08-13T00:27:42.245Z,974.3
2018-08-13T00:28:43.424Z,974.3
2018-08-13T00:29:44.637Z,974.3
2018-08-13T00:30:49.346Z,974.2
2018-08-13T00:31:51.979Z,974.2
2018-08-13T00:32:53.433Z,974.2
2018-08-13T00:33:54.664Z,974.2
2018-08-13T00:34:58.103Z,974.2
2018-08-13T00:36:00.067Z,974.2
2018-08-13T00:37:01.318Z,974.2
2018-08-13T00:38:02.843Z,974.1
2018-08-13T00:39:04.571Z,974.2
2018-08-13T00:40:07.949Z,974.1
2018-08-13T00:41:09.139Z,974.1
2018-08-13T00:42:14.087Z,974.1
2018-08-13T00:43:15.333Z,974.1
2018-08-13T00:44:16.555Z,974.1
2018-08-13T00:45:19.900Z,974.1
2018-08-13T00:46:21.093Z,974.1
2018-08-13T00:47:22.716Z,974.1
2018-08-13T00:48:23.975Z,974.1
2018-08-13T00:49:25.183Z,974.1
2018-08-13T00:50:26.760Z,974
2018-08-13T00:51:30.741Z,974
2018-08-13T00:52:33.192Z,974.1
2018-08-13T00:53:34.757Z,974.1
2018-08-13T00:54:35.950Z,974.1
2018-08-13T00:55:37.133Z,974
2018-08-13T00:56:38.331Z,974
2018-08-13T00:57:39.513Z,974
2018-08-13T00:58:40.755Z,974
2018-08-13T00:59:41.912Z,974
2018-08-13T01:00:43.098Z,974.1
2018-08-13T01:01:44.291Z,974.1
2018-08-13T01:02:45.464Z,974.1
2018-08-13T01:03:46.687Z,974
2018-08-13T01:04:47.883Z,974.1
2018-08-13T01:05:51.826Z,974
2018-08-13T01:06:53.023Z,974
2018-08-13T01:07:54.262Z,974
2018-08-13T01:08:56.324Z,974
2018-08-13T01:10:06.929Z,973.9
2018-08-13T01:11:08.130Z,973.9
2018-08-13T01:12:09.430Z,973.9
2018-08-13T01:13:12.971Z,974
2018-08-13T01:14:14.226Z,974
2018-08-13T01:15:18.522Z,973.9
2018-08-13T01:16:19.783Z,973.9
2018-08-13T01:17:26.985Z,973.9
2018-08-13T01:18:32.401Z,973.9
2018-08-13T01:19:36.531Z,973.9
2018-08-13T01:20:37.696Z,973.9
2018-08-13T01:21:38.865Z,974
2018-08-13T01:22:40.336Z,973.9
2018-08-13T01:23:41.551Z,973.9
2018-08-13T01:24:42.979Z,973.9
2018-08-13T01:25:50.255Z,973.9
2018-08-13T01:26:51.480Z,973.9
2018-08-13T01:27:52.681Z,973.9
2018-08-13T01:28:53.876Z,973.9
2018-08-13T01:29:58.127Z,973.9
2018-08-13T01:30:59.327Z,973.8
2018-08-13T01:32:00.543Z,973.8
2018-08-13T01:33:01.753Z,973.8
2018-08-13T01:34:03.644Z,973.9
2018-08-13T01:35:04.887Z,973.8
2018-08-13T01:36:08.912Z,973.8
2018-08-13T01:37:10.842Z,973.8
2018-08-13T01:38:12.083Z,973.7
2018-08-13T01:39:13.303Z,973.7
2018-08-13T01:40:17.261Z,973.7
2018-08-13T01:41:21.208Z,973.7
2018-08-13T01:42:22.403Z,973.6
2018-08-13T01:43:23.590Z,973.6
2018-08-13T01:44:24.848Z,973.7
2018-08-13T01:45:27.823Z,973.7
2018-08-13T01:46:31.817Z,973.6
2018-08-13T01:47:33.074Z,973.6
2018-08-13T01:48:34.277Z,973.7
2018-08-13T01:49:35.486Z,973.6
2018-08-13T01:50:38.959Z,973.6
2018-08-13T01:51:40.162Z,973.6
2018-08-13T01:52:41.396Z,973.6
2018-08-13T01:53:42.614Z,973.6
2018-08-13T01:54:43.820Z,973.6
2018-08-13T01:55:45.464Z,973.6
2018-08-13T01:56:46.633Z,973.6
2018-08-13T01:57:49.240Z,973.6
2018-08-13T01:58:50.483Z,973.6
2018-08-13T01:59:51.630Z,973.6
2018-08-13T02:00:52.822Z,973.7
2018-08-13T02:01:54.011Z,973.4
2018-08-13T02:02:55.200Z,973.6
2018-08-13T02:03:59.060Z,973.7
2018-08-13T02:05:00.242Z,973.7
2018-08-13T02:06:01.522Z,973.6
2018-08-13T02:07:02.707Z,973.7
2018-08-13T02:08:04.938Z,973.7
2018-08-13T02:09:07.563Z,973.6
2018-08-13T02:10:08.778Z,973.7
2018-08-13T02:11:13.512Z,973.6
2018-08-13T02:12:14.688Z,973.6
2018-08-13T02:13:15.923Z,973.7
2018-08-13T02:14:17.125Z,973.7
2018-08-13T02:15:18.310Z,973.7
2018-08-13T02:16:19.575Z,973.7
2018-08-13T02:17:20.808Z,973.5
2018-08-13T02:18:24.738Z,973.6
2018-08-13T02:19:25.942Z,973.6
2018-08-13T02:20:27.126Z,973.7
2018-08-13T02:21:28.383Z,973.6
2018-08-13T02:22:31.415Z,973.6
2018-08-13T02:23:32.597Z,973.6
2018-08-13T02:24:33.829Z,973.6
2018-08-13T02:25:35.015Z,973.6
2018-08-13T02:26:36.720Z,973.6
2018-08-13T02:27:37.896Z,973.5
2018-08-13T02:28:42.287Z,973.6
2018-08-13T02:29:43.472Z,973.6
2018-08-13T02:30:44.682Z,973.5
2018-08-13T02:31:45.932Z,973.5
2018-08-13T02:32:47.111Z,973.5
2018-08-13T02:33:48.347Z,973.5
2018-08-13T02:34:49.559Z,973.5
2018-08-13T02:35:50.748Z,973.5
2018-08-13T02:36:51.990Z,973.5
2018-08-13T02:37:53.173Z,973.5
2018-08-13T02:38:54.359Z,973.5
2018-08-13T02:39:55.543Z,973.5
2018-08-13T02:40:56.727Z,973.5
2018-08-13T02:42:01.832Z,973.5
2018-08-13T02:43:03.021Z,973.5
2018-08-13T02:44:04.254Z,973.5
2018-08-13T02:45:05.482Z,973.5
2018-08-13T02:46:06.687Z,973.4
2018-08-13T02:47:07.953Z,973.2
2018-08-13T02:48:09.134Z,973.1
2018-08-13T02:49:10.377Z,973.3
2018-08-13T02:50:11.559Z,973.4
2018-08-13T02:51:12.725Z,973.3
2018-08-13T02:52:14.005Z,973.3
2018-08-13T02:53:15.184Z,973.3
2018-08-13T02:54:16.359Z,973.3
2018-08-13T02:55:17.537Z,973.3
2018-08-13T02:56:18.783Z,973.3
2018-08-13T02:57:20.374Z,973.3
2018-08-13T02:58:21.572Z,973.3
2018-08-13T02:59:22.781Z,973.3
2018-08-13T03:00:23.999Z,973.3
2018-08-13T03:01:25.196Z,973.4
2018-08-13T03:02:26.440Z,973.4
2018-08-13T03:03:27.672Z,973.3
2018-08-13T03:04:28.915Z,973.3
2018-08-13T03:05:30.164Z,973.3
2018-08-13T03:06:31.399Z,973.4
2018-08-13T03:07:32.616Z,973.4
2018-08-13T03:08:33.810Z,973.4
2018-08-13T03:09:35.029Z,973.4
2018-08-13T03:10:36.245Z,973.4
2018-08-13T03:11:39.899Z,973.2
2018-08-13T03:12:41.200Z,973.3
2018-08-13T03:13:42.399Z,973.3
2018-08-13T03:14:43.585Z,973.3
2018-08-13T03:15:44.820Z,973.4
2018-08-13T03:16:48.401Z,973.2
2018-08-13T03:17:50.421Z,973.3
2018-08-13T03:18:51.680Z,973.4
2018-08-13T03:19:52.884Z,973.4
2018-08-13T03:20:54.073Z,973.4
2018-08-13T03:21:58.079Z,973.4
2018-08-13T03:22:59.290Z,973.4
2018-08-13T03:24:00.524Z,973.4
2018-08-13T03:25:01.860Z,973.4
2018-08-13T03:27:18.665Z,973.4
2018-08-13T03:28:19.908Z,973.3
2018-08-13T03:29:23.311Z,973.3
2018-08-13T03:30:24.528Z,973.4
2018-08-13T03:31:25.716Z,973.4
2018-08-13T03:32:26.942Z,973.5
2018-08-13T03:33:28.179Z,973.4
2018-08-13T03:34:29.384Z,973.4
2018-08-13T03:35:30.659Z,973.4
2018-08-13T03:36:31.909Z,973.4
2018-08-13T03:37:33.124Z,973.4
2018-08-13T03:38:34.435Z,973.4
2018-08-13T03:39:35.641Z,973.4
2018-08-13T03:40:36.901Z,973.5
2018-08-13T03:41:38.102Z,973.4
2018-08-13T03:42:39.316Z,973.4
2018-08-13T03:43:40.791Z,973.5
2018-08-13T03:44:42.036Z,973.5
2018-08-13T03:45:43.277Z,973.5
2018-08-13T03:46:44.540Z,973.4
2018-08-13T03:47:45.774Z,973.4
2018-08-13T03:48:47.015Z,973.4
2018-08-13T03:49:48.404Z,973.5
2018-08-13T03:50:49.639Z,973.4
2018-08-13T03:51:50.845Z,973.5
2018-08-13T03:52:53.371Z,973.4
2018-08-13T03:53:55.024Z,973.4
2018-08-13T03:54:56.231Z,973.4
2018-08-13T03:55:57.452Z,973.4
2018-08-13T03:56:58.697Z,973.4
2018-08-13T03:57:59.966Z,973.3
2018-08-13T03:59:01.525Z,973.3
2018-08-13T04:00:02.778Z,973.3
2018-08-13T04:01:03.983Z,973.4
2018-08-13T04:02:05.177Z,973.2
2018-08-13T04:03:06.364Z,973.4
2018-08-13T04:04:09.323Z,973.3
2018-08-13T04:05:10.545Z,973.3
2018-08-13T04:06:11.783Z,973.3
2018-08-13T04:07:15.988Z,973.4
2018-08-13T04:08:17.199Z,973.3
2018-08-13T04:09:18.459Z,973.4
2018-08-13T04:10:19.651Z,973.3
2018-08-13T04:11:23.100Z,973.3
2018-08-13T04:12:27.816Z,973.4
2018-08-13T04:13:32.193Z,973.3
2018-08-13T04:14:39.670Z,973.3
2018-08-13T04:15:40.910Z,973.3
2018-08-13T04:16:45.152Z,973.2
2018-08-13T04:17:46.371Z,973.2
2018-08-13T04:18:47.555Z,973.2
2018-08-13T04:19:48.779Z,973.2
2018-08-13T04:20:51.619Z,973.2
2018-08-13T04:21:52.823Z,973.1
2018-08-13T04:22:57.160Z,973.1
2018-08-13T04:23:58.429Z,973.2
2018-08-13T04:25:04.478Z,973.1
2018-08-13T04:26:07.232Z,973.2
2018-08-13T04:27:08.467Z,973.2
2018-08-13T04:28:16.925Z,973.3
2018-08-13T04:29:21.167Z,973.3
2018-08-13T04:30:22.459Z,973.3
2018-08-13T04:31:23.810Z,973.2
2018-08-13T04:32:25.031Z,973.2
2018-08-13T04:33:26.228Z,973.1
2018-08-13T04:34:27.511Z,973.1
2018-08-13T04:35:28.904Z,973.1
2018-08-13T04:36:30.137Z,973.1
2018-08-13T04:37:31.426Z,973.1
2018-08-13T04:38:33.145Z,973.1
2018-08-13T04:39:34.330Z,973.2
2018-08-13T04:40:37.070Z,973.2
2018-08-13T04:41:38.236Z,973.1
2018-08-13T04:42:39.441Z,973.2
2018-08-13T04:43:40.679Z,973.3
2018-08-13T04:44:42.049Z,973.3
2018-08-13T04:45:43.359Z,973.3
2018-08-13T04:46:44.590Z,973.2
2018-08-13T04:47:45.860Z,973.3
2018-08-13T04:48:47.050Z,973.2
2018-08-13T04:49:48.295Z,973.2
2018-08-13T04:50:49.538Z,973.1
2018-08-13T04:51:50.776Z,973.1
2018-08-13T04:52:52.055Z,973.1
2018-08-13T04:53:53.280Z,973.1
2018-08-13T04:54:54.469Z,973
2018-08-13T04:56:00.021Z,972.7
2018-08-13T04:57:01.352Z,973
2018-08-13T04:58:02.583Z,973
2018-08-13T04:59:03.903Z,973
2018-08-13T05:00:05.108Z,972.9
2018-08-13T05:01:06.811Z,972.9
2018-08-13T05:02:08.032Z,972.8
2018-08-13T05:03:09.212Z,972.8
2018-08-13T05:04:10.416Z,972.8
2018-08-13T05:05:11.674Z,972.9
2018-08-13T05:06:12.904Z,972.9
2018-08-13T05:07:14.373Z,972.9
2018-08-13T05:08:15.586Z,972.9
2018-08-13T05:09:16.776Z,973
2018-08-13T05:10:18.023Z,973
2018-08-13T05:11:20.932Z,972.9
2018-08-13T05:12:25.210Z,972.9
2018-08-13T05:13:31.363Z,972.9
2018-08-13T05:14:32.616Z,972.8
2018-08-13T05:15:33.857Z,972.8
2018-08-13T05:16:35.336Z,972.8
2018-08-13T05:17:36.556Z,972.7
2018-08-13T05:18:37.855Z,972.7
2018-08-13T05:19:39.224Z,972.7
2018-08-13T05:20:40.466Z,972.7
2018-08-13T05:21:41.886Z,972.6
2018-08-13T05:22:43.328Z,972.7
2018-08-13T05:23:44.925Z,972.7
2018-08-13T05:24:46.123Z,972.6
2018-08-13T05:25:47.579Z,972.6
2018-08-13T05:26:49.119Z,972.6
2018-08-13T05:27:50.359Z,972.6
2018-08-13T05:28:51.678Z,972.5
2018-08-13T05:29:55.375Z,972.6
2018-08-13T05:30:57.689Z,972.6
2018-08-13T05:32:03.811Z,972.4
2018-08-13T05:33:05.269Z,972.5
2018-08-13T05:34:07.736Z,972.3
2018-08-13T05:35:08.995Z,972.3
2018-08-13T05:36:10.342Z,972.4
2018-08-13T05:37:15.999Z,972.3
2018-08-13T05:38:17.288Z,972.4
2018-08-13T05:39:18.543Z,972.2
2018-08-13T05:40:19.805Z,972.1
2018-08-13T05:41:28.260Z,972.2
2018-08-13T05:42:30.958Z,972.2
2018-08-13T05:43:35.043Z,972.3
2018-08-13T05:44:38.996Z,972.2
2018-08-13T05:45:40.284Z,972.3
2018-08-13T05:46:42.689Z,972
2018-08-13T05:47:44.004Z,972.1
2018-08-13T05:48:45.259Z,972.2
2018-08-13T05:49:46.543Z,972.2
2018-08-13T05:50:50.214Z,971.9
2018-08-13T05:51:52.809Z,972.2
2018-08-13T05:52:58.850Z,972.1
2018-08-13T05:54:03.124Z,972.1
2018-08-13T05:55:04.367Z,972.1
2018-08-13T05:56:05.611Z,972.2
2018-08-13T05:57:09.946Z,972.1
2018-08-13T05:58:11.663Z,972.2
2018-08-13T05:59:12.902Z,972.2
2018-08-13T06:00:14.267Z,972.1
2018-08-13T06:01:17.668Z,971.8
2018-08-13T06:02:19.019Z,972.1
2018-08-13T06:03:20.267Z,972.1
2018-08-13T06:04:25.433Z,972
2018-08-13T06:05:27.150Z,972
2018-08-13T06:06:28.440Z,972.1
2018-08-13T06:07:34.606Z,971.7
2018-08-13T06:08:38.495Z,971.9
2018-08-13T06:09:39.725Z,971.9
2018-08-13T06:10:41.264Z,971.9
2018-08-13T06:11:45.225Z,971.9
2018-08-13T06:12:46.339Z,972
2018-08-13T06:13:49.862Z,971.9
2018-08-13T06:14:54.099Z,971.6
2018-08-13T06:15:55.331Z,971.8
2018-08-13T06:16:56.558Z,972.1
2018-08-13T06:18:02.740Z,972.1
2018-08-13T06:19:06.635Z,971.8
2018-08-13T06:20:10.189Z,971.7
2018-08-13T06:21:14.218Z,971.9
2018-08-13T06:22:15.441Z,971.9
2018-08-13T06:23:16.716Z,971.7
2018-08-13T06:24:18.026Z,971.7
2018-08-13T06:25:19.209Z,971.8
2018-08-13T06:26:22.855Z,971.9
2018-08-13T06:27:24.081Z,971.8
2018-08-13T06:28:25.365Z,971.7
2018-08-13T06:29:26.659Z,971.9
2018-08-13T06:30:27.890Z,971.8
2018-08-13T06:31:29.144Z,971.8
2018-08-13T06:32:30.382Z,971.8
2018-08-13T06:33:31.777Z,972.2
2018-08-13T06:34:36.033Z,971.8
2018-08-13T06:35:46.368Z,971.8
2018-08-13T06:36:50.476Z,971.9
2018-08-13T06:37:54.145Z,971.9
2018-08-13T06:38:58.425Z,972.4
2018-08-13T06:40:02.042Z,971.9
2018-08-13T06:41:06.687Z,972.1
2018-08-13T06:42:07.915Z,971.9
2018-08-13T06:43:14.443Z,972
2018-08-13T06:44:15.982Z,972.1
2018-08-13T06:45:17.285Z,972.4
2018-08-13T06:46:18.519Z,972.4
2018-08-13T06:47:19.777Z,972
2018-08-13T06:48:21.259Z,972.1
2018-08-13T06:49:25.564Z,971.9
2018-08-13T06:50:26.918Z,971.9
2018-08-13T06:51:31.268Z,972.2
2018-08-13T06:52:32.873Z,972.3
2018-08-13T06:53:34.285Z,972.3
2018-08-13T06:54:35.689Z,972
2018-08-13T06:55:37.412Z,971.9
2018-08-13T06:56:39.358Z,972.5
2018-08-13T06:57:40.711Z,973.4
2018-08-13T06:58:46.166Z,972.6
2018-08-13T06:59:47.796Z,971.9
2018-08-13T07:00:49.127Z,971.8
2018-08-13T07:01:52.891Z,971.8
2018-08-13T07:02:55.904Z,971.8
2018-08-13T07:03:57.403Z,971.8
2018-08-13T07:04:58.643Z,971.8
2018-08-13T07:06:00.734Z,971.8
2018-08-13T07:07:02.148Z,971.9
2018-08-13T07:08:06.193Z,971.9
2018-08-13T07:09:07.607Z,971.9
2018-08-13T07:10:10.041Z,972
2018-08-13T07:11:11.320Z,971.9
2018-08-13T07:12:12.660Z,971.9
2018-08-13T07:13:13.946Z,971.9
2018-08-13T07:14:18.628Z,971.9
2018-08-13T07:15:24.733Z,971.9
2018-08-13T07:16:27.439Z,971.8
2018-08-13T07:17:33.545Z,971.8
2018-08-13T07:18:36.973Z,971.9
2018-08-13T07:19:38.519Z,971.8
2018-08-13T07:20:43.211Z,971.7
2018-08-13T07:21:51.378Z,971.8
2018-08-13T07:22:52.953Z,971.7
2018-08-13T07:23:57.049Z,971.8
2018-08-13T07:24:58.316Z,972
2018-08-13T07:26:00.256Z,971.8
2018-08-13T07:27:01.713Z,971.7
2018-08-13T07:28:03.718Z,971.8
2018-08-13T07:29:08.192Z,971.8
2018-08-13T07:30:12.498Z,971.9
2018-08-13T07:31:13.805Z,971.8
2018-08-13T07:32:18.507Z,971.8
2018-08-13T07:33:20.399Z,971.7
2018-08-13T07:34:22.603Z,971.9
2018-08-13T07:35:26.143Z,972
2018-08-13T07:36:30.372Z,972
2018-08-13T07:37:34.390Z,971.8
2018-08-13T07:38:35.745Z,972
2018-08-13T07:39:37.577Z,972
2018-08-13T07:40:38.874Z,972
2018-08-13T07:41:46.348Z,972.1
2018-08-13T07:42:52.372Z,972
2018-08-13T07:43:53.613Z,972
2018-08-13T07:44:57.247Z,972.1
2018-08-13T07:45:58.542Z,972
2018-08-13T07:47:05.883Z,972.1
2018-08-13T07:48:07.357Z,972.2
2018-08-13T07:49:08.664Z,971.8
2018-08-13T07:50:09.996Z,972
2018-08-13T07:51:14.063Z,972.2
2018-08-13T07:52:17.678Z,972.3
2018-08-13T07:53:19.205Z,972.2
2018-08-13T07:54:20.687Z,972.2
2018-08-13T07:55:23.037Z,972.3
2018-08-13T07:56:24.300Z,972.6
2018-08-13T07:57:25.513Z,972.6
2018-08-13T07:58:26.773Z,972.8
2018-08-13T07:59:30.758Z,972.8
2018-08-13T08:00:32.031Z,972.9
2018-08-13T08:01:33.260Z,973
2018-08-13T08:02:35.671Z,973.1
2018-08-13T08:03:36.936Z,973.1
2018-08-13T08:04:40.410Z,973.1
2018-08-13T08:05:43.194Z,973.3
2018-08-13T08:06:44.423Z,973.2
2018-08-13T08:07:45.660Z,973.3
2018-08-13T08:08:47.110Z,973.4
2018-08-13T08:09:48.405Z,973.3
2018-08-13T08:10:53.966Z,973.3
2018-08-13T08:11:57.981Z,973.3
2018-08-13T08:12:59.410Z,973.3
2018-08-13T08:14:00.735Z,973.3
2018-08-13T08:15:02.073Z,973.4
2018-08-13T08:16:03.376Z,973.2
2018-08-13T08:17:04.705Z,973.3
2018-08-13T08:18:08.462Z,973.2
2018-08-13T08:19:09.734Z,973.4
2018-08-13T08:20:11.643Z,973.4
2018-08-13T08:21:13.020Z,973.5
2018-08-13T08:22:34.309Z,973.6
2018-08-13T08:23:36.339Z,973.5
2018-08-13T08:24:39.449Z,973.6
2018-08-13T08:25:43.268Z,973.4
2018-08-13T08:26:44.588Z,973.6
2018-08-13T08:27:49.808Z,973.6
2018-08-13T08:29:00.231Z,973.6
2018-08-13T08:30:01.748Z,973.8
2018-08-13T08:31:03.270Z,973.8
2018-08-13T08:32:05.825Z,973.8
2018-08-13T08:33:07.072Z,973.9
2018-08-13T08:34:08.589Z,974
2018-08-13T08:35:13.048Z,973.8
2018-08-13T08:36:16.647Z,974
2018-08-13T08:37:18.198Z,974
2018-08-13T08:38:20.789Z,973.7
2018-08-13T08:39:27.863Z,974
2018-08-13T08:40:32.376Z,973.8
2018-08-13T08:41:38.459Z,973.9
2018-08-13T08:42:39.672Z,973.9
2018-08-13T08:43:40.973Z,974
2018-08-13T08:44:42.409Z,973.8
2018-08-13T08:45:43.898Z,974
2018-08-13T08:46:45.696Z,974
2018-08-13T08:47:47.015Z,974
2018-08-13T08:48:48.246Z,973.9
2018-08-13T08:49:50.485Z,974
2018-08-13T08:50:52.344Z,974
2018-08-13T08:51:53.616Z,974
2018-08-13T08:52:54.829Z,974
2018-08-13T08:54:00.797Z,974
2018-08-13T08:55:04.361Z,974.1
2018-08-13T08:56:05.694Z,974
2018-08-13T08:57:08.609Z,974
2018-08-13T08:58:12.190Z,974
2018-08-13T08:59:13.803Z,974.1
2018-08-13T09:00:15.072Z,974.1
2018-08-13T09:01:22.802Z,974
2018-08-13T09:02:24.038Z,974.1
2018-08-13T09:03:27.405Z,974.1
2018-08-13T09:04:28.619Z,974.1
2018-08-13T09:05:32.963Z,974.2
2018-08-13T09:06:34.356Z,974.1
2018-08-13T09:07:35.636Z,974.1
2018-08-13T09:08:36.940Z,974
2018-08-13T09:09:41.186Z,974
2018-08-13T09:10:42.474Z,974
2018-08-13T09:11:43.801Z,973.9
2018-08-13T09:12:45.028Z,974
2018-08-13T09:13:46.516Z,973.7
2018-08-13T09:14:50.067Z,973.7
2018-08-13T09:15:51.641Z,973.7
2018-08-13T09:16:52.989Z,973.7
2018-08-13T09:17:54.409Z,973.6
2018-08-13T09:18:55.754Z,973.7
2018-08-13T09:19:57.260Z,973.6
2018-08-13T09:21:04.667Z,973.5
2018-08-13T09:22:06.287Z,973.4
2018-08-13T09:23:07.890Z,973.3
2018-08-13T09:24:09.140Z,973.2
2018-08-13T09:25:10.374Z,973.3
2018-08-13T09:26:11.689Z,973.4
2018-08-13T09:27:27.667Z,973.3
2018-08-13T09:28:28.930Z,973.4
2018-08-13T09:29:36.511Z,973.4
2018-08-13T09:30:37.917Z,973.4
2018-08-13T09:31:42.374Z,973.4
2018-08-13T09:32:43.755Z,973.4
2018-08-13T09:33:45.727Z,973.4
2018-08-13T09:34:53.300Z,973.3
2018-08-13T09:35:58.668Z,973.3
2018-08-13T09:37:00.267Z,973.3
2018-08-13T09:38:02.030Z,973.2
2018-08-13T09:39:03.662Z,973.3
2018-08-13T09:40:04.939Z,973.3
2018-08-13T09:41:06.149Z,973.3
2018-08-13T09:42:08.093Z,973.2
2018-08-13T09:43:09.930Z,973.2
2018-08-13T09:44:11.214Z,973.2
2018-08-13T09:45:12.775Z,973
2018-08-13T09:46:14.394Z,973.2
2018-08-13T09:47:15.696Z,973.1
2018-08-13T09:48:18.664Z,973.2
2018-08-13T09:49:19.910Z,973.1
2018-08-13T09:50:41.343Z,973
2018-08-13T09:51:42.905Z,973
2018-08-13T09:52:47.277Z,972.9
2018-08-13T09:53:55.739Z,972.9
2018-08-13T09:54:59.408Z,972.9
2018-08-13T09:56:00.675Z,972.9
2018-08-13T09:57:03.873Z,973
2018-08-13T09:58:14.402Z,973
2018-08-13T09:59:15.918Z,973
2018-08-13T10:00:18.822Z,973.1
2018-08-13T10:01:23.416Z,973
2018-08-13T10:02:32.736Z,973.1
2018-08-13T10:03:34.036Z,973.1
2018-08-13T10:04:35.493Z,973.2
2018-08-13T10:05:37.065Z,973.2
2018-08-13T10:06:38.293Z,973.2
2018-08-13T10:07:39.687Z,972.9
2018-08-13T10:08:40.961Z,973.2
2018-08-13T10:09:42.412Z,973.2
2018-08-13T10:10:43.773Z,973.3
2018-08-13T10:11:50.923Z,973.2
2018-08-13T10:12:52.415Z,973.2
2018-08-13T10:13:54.485Z,973.1
2018-08-13T10:14:58.214Z,973.1
2018-08-13T10:16:02.524Z,973.2
2018-08-13T10:17:06.620Z,973.2
2018-08-13T10:18:08.025Z,973.2
2018-08-13T10:19:09.375Z,973.2
2018-08-13T10:20:12.156Z,973.2
2018-08-13T10:21:13.496Z,973.3
2018-08-13T10:22:16.235Z,973.3
2018-08-13T10:23:20.261Z,973.3
2018-08-13T10:24:22.804Z,973.3
2018-08-13T10:25:27.394Z,973
2018-08-13T10:26:28.606Z,973.1
2018-08-13T10:27:32.548Z,973.2
2018-08-13T10:28:36.427Z,973.1
2018-08-13T10:29:37.703Z,973.2
2018-08-13T10:30:39.070Z,973.3
2018-08-13T10:31:40.406Z,973.2
2018-08-13T10:32:41.861Z,973.2
2018-08-13T10:33:43.391Z,973.2
2018-08-13T10:34:47.089Z,973.1
2018-08-13T10:35:48.436Z,973.2
2018-08-13T10:37:02.785Z,973.2
2018-08-13T10:38:09.092Z,973.1
2018-08-13T10:39:11.265Z,973.3
2018-08-13T10:40:12.570Z,973.2
2018-08-13T10:41:16.113Z,973.2
2018-08-13T10:42:29.723Z,973.2
2018-08-13T10:43:32.607Z,973.2
2018-08-13T10:44:36.368Z,973.2
2018-08-13T10:45:37.815Z,973.2
2018-08-13T10:46:39.081Z,973.2
2018-08-13T10:47:40.427Z,973.2
2018-08-13T10:48:41.715Z,973
2018-08-13T10:49:43.008Z,973.1
2018-08-13T10:50:46.262Z,973.1
2018-08-13T10:51:49.107Z,973.1
2018-08-13T10:52:50.437Z,973.1
2018-08-13T10:53:54.449Z,973.1
2018-08-13T10:54:55.678Z,973.1
2018-08-13T10:55:57.006Z,973.1
2018-08-13T10:56:58.663Z,973.1
2018-08-13T10:58:01.072Z,973.1
2018-08-13T10:59:02.427Z,973.1
2018-08-13T11:00:05.036Z,973.1
2018-08-13T11:01:06.358Z,973.1
2018-08-13T11:02:07.681Z,973.1
2018-08-13T11:03:13.103Z,973.1
2018-08-13T11:04:14.397Z,973.1
2018-08-13T11:05:15.827Z,973.1
2018-08-13T11:06:17.357Z,973
2018-08-13T11:07:18.686Z,973
2018-08-13T11:08:20.059Z,973
2018-08-13T11:09:22.765Z,973.1
2018-08-13T11:10:29.102Z,972.9
2018-08-13T11:11:30.385Z,973
2018-08-13T11:12:33.762Z,973
2018-08-13T11:13:36.617Z,973.1
2018-08-13T11:14:40.111Z,973
2018-08-13T11:15:41.327Z,973
2018-08-13T11:16:46.992Z,972.7
2018-08-13T11:17:49.581Z,972.9
2018-08-13T11:18:55.262Z,973
2018-08-13T11:19:56.595Z,972.7
2018-08-13T11:20:58.058Z,972.7
2018-08-13T11:21:59.529Z,972.7
2018-08-13T11:23:10.888Z,972.5
2018-08-13T11:24:28.765Z,972.7
2018-08-13T11:25:30.181Z,972.8
2018-08-13T11:26:33.085Z,972.9
2018-08-13T11:27:37.602Z,972.9
2018-08-13T11:28:53.375Z,972.7
2018-08-13T11:29:54.718Z,972.9
2018-08-13T11:30:55.951Z,972.8
2018-08-13T11:31:57.217Z,972.9
2018-08-13T11:32:58.478Z,972.8
2018-08-13T11:34:00.031Z,972.8
2018-08-13T11:35:02.861Z,972.7
2018-08-13T11:36:04.257Z,972.8
2018-08-13T11:37:06.552Z,972.8
2018-08-13T11:38:07.875Z,972.8
2018-08-13T11:39:09.171Z,972.6
2018-08-13T11:40:10.461Z,972.8
2018-08-13T11:41:11.712Z,972.8
2018-08-13T11:42:13.161Z,972.9
2018-08-13T11:43:14.595Z,972.9
2018-08-13T11:44:18.670Z,972.9
2018-08-13T11:45:20.718Z,972.9
2018-08-13T11:46:22.976Z,972.9
2018-08-13T11:47:24.543Z,972.9
2018-08-13T11:48:28.689Z,972.9
2018-08-13T11:49:30.068Z,972.9
2018-08-13T11:50:33.469Z,972.9
2018-08-13T11:51:37.747Z,973
2018-08-13T11:52:39.006Z,973
2018-08-13T11:53:50.512Z,973
2018-08-13T11:54:51.849Z,972.9
2018-08-13T11:55:57.652Z,972.9
2018-08-13T11:57:00.144Z,972.9
2018-08-13T11:58:01.635Z,972.8
2018-08-13T11:59:04.142Z,973
2018-08-13T12:00:06.823Z,972.8
2018-08-13T12:01:10.844Z,973
2018-08-13T12:02:26.127Z,972.9
2018-08-13T12:03:28.695Z,972.9
2018-08-13T12:04:30.256Z,972.8
2018-08-13T12:05:36.347Z,973
2018-08-13T12:06:37.604Z,973
2018-08-13T12:07:38.876Z,973
2018-08-13T12:08:42.230Z,972.9
2018-08-13T12:09:43.448Z,972.8
2018-08-13T12:10:45.052Z,972.9
2018-08-13T12:11:47.684Z,972.7
2018-08-13T12:12:49.190Z,972.9
2018-08-13T12:13:50.416Z,973
2018-08-13T12:14:53.333Z,973.1
2018-08-13T12:15:57.331Z,972.8
2018-08-13T12:16:58.595Z,973.1
2018-08-13T12:17:59.941Z,973.1
2018-08-13T12:19:07.661Z,973.1
2018-08-13T12:20:09.218Z,973.1
2018-08-13T12:21:12.066Z,972.9
2018-08-13T12:22:18.592Z,973
2018-08-13T12:23:24.637Z,973
2018-08-13T12:24:30.068Z,973
2018-08-13T12:25:31.801Z,972.9
2018-08-13T12:26:36.276Z,972.9
2018-08-13T12:27:38.639Z,972.8
2018-08-13T12:28:41.087Z,972.9
2018-08-13T12:29:46.909Z,972.8
2018-08-13T12:30:49.114Z,972.8
2018-08-13T12:31:50.436Z,972.9
2018-08-13T12:32:51.677Z,973
2018-08-13T12:33:52.921Z,973
2018-08-13T12:34:56.379Z,972.9
2018-08-13T12:35:57.818Z,972.9
2018-08-13T12:37:02.315Z,973
2018-08-13T12:38:05.926Z,973
2018-08-13T12:39:07.233Z,973
2018-08-13T12:40:08.591Z,973
2018-08-13T12:41:14.521Z,973.1
2018-08-13T12:42:16.054Z,973
2018-08-13T12:43:20.566Z,973.1
2018-08-13T12:44:21.992Z,973.1
2018-08-13T12:45:26.340Z,973.1
2018-08-13T12:46:35.865Z,973.1
2018-08-13T12:47:37.312Z,973.1
2018-08-13T12:48:41.376Z,973.1
2018-08-13T12:49:42.671Z,973.1
2018-08-13T12:50:44.583Z,973.1
2018-08-13T12:51:45.872Z,973.1
2018-08-13T12:53:06.395Z,973.1
2018-08-13T12:54:10.765Z,973
2018-08-13T12:55:15.447Z,973.1
2018-08-13T12:56:19.272Z,973.1
2018-08-13T12:57:24.746Z,972.8
2018-08-13T12:58:26.133Z,973.1
2018-08-13T12:59:30.073Z,973.1
2018-08-13T13:00:31.677Z,972.9
2018-08-13T13:01:35.413Z,973
2018-08-13T13:02:36.845Z,973.1
2018-08-13T13:03:38.078Z,973.1
2018-08-13T13:04:42.421Z,973.1
2018-08-13T13:05:44.108Z,973
2018-08-13T13:06:51.190Z,973
2018-08-13T13:07:53.956Z,973
2018-08-13T13:08:56.761Z,972.8
2018-08-13T13:10:00.527Z,973
2018-08-13T13:11:04.284Z,973.1
2018-08-13T13:12:06.420Z,973.1
2018-08-13T13:13:07.890Z,972.9
2018-08-13T13:14:11.518Z,973
2018-08-13T13:15:16.724Z,973
2018-08-13T13:16:20.678Z,973
2018-08-13T13:17:22.007Z,973
2018-08-13T13:18:26.315Z,972.8
2018-08-13T13:19:27.685Z,973
2018-08-13T13:20:30.300Z,973.1
2018-08-13T13:21:32.618Z,973
2018-08-13T13:22:37.148Z,973
2018-08-13T13:23:38.796Z,972.9
2018-08-13T13:24:40.395Z,972.9
2018-08-13T13:25:41.606Z,973
2018-08-13T13:26:48.332Z,972.9
2018-08-13T13:27:59.002Z,972.9
2018-08-13T13:29:00.413Z,972.8
2018-08-13T13:30:09.132Z,972.8
2018-08-13T13:31:10.406Z,972.9
2018-08-13T13:32:11.696Z,972.8
2018-08-13T13:33:13.044Z,972.5